Time;durP1;ratioP1;P1;durP2;ratioP2;P2;SDS_P1;SDS_P2;PMS_P1;PMS_P2;Temp;Humidity;BMP_temperature;BMP_pressure;BME280_temperature;BME280_humidity;BME280_pressure;Samples;Min_cycle;Max_cycle;Signal;HPM_P1;HPM_P2
2022/10/19 00:01:43;;;;;;;10.20;2.80;;;13.10;99.90;;;;;;5061930;28;20213;-73
2022/10/19 00:04:08;;;;;;;6.63;2.50;;;13.20;99.90;;;;;;5059869;28;20328;-73
2022/10/19 00:06:35;;;;;;;8.90;2.90;;;13.30;99.90;;;;;;5059615;28;20285;-73
2022/10/19 00:09:11;;;;;;;9.40;2.77;;;13.40;99.90;;;;;;5065356;28;20233;-74
2022/10/19 00:11:39;;;;;;;11.73;2.73;;;13.30;99.90;;;;;;5071070;28;20174;-70
2022/10/19 00:14:05;;;;;;;12.43;2.53;;;13.30;99.90;;;;;;5064926;28;20216;-71
2022/10/19 00:16:33;;;;;;;5.60;2.43;;;13.20;99.90;;;;;;5081333;28;20293;-70
2022/10/19 00:19:01;;;;;;;6.37;2.63;;;13.20;99.90;;;;;;5073356;28;20213;-70
2022/10/19 00:21:27;;;;;;;7.63;2.43;;;13.20;99.90;;;;;;5057351;28;20223;-70
2022/10/19 00:23:53;;;;;;;9.77;2.53;;;13.10;99.90;;;;;;5075897;28;20203;-70
2022/10/19 00:26:18;;;;;;;11.40;2.97;;;13.10;99.90;;;;;;5071847;28;20180;-70
2022/10/19 00:28:44;;;;;;;6.07;2.33;;;13.10;99.90;;;;;;5074884;28;20210;-71
2022/10/19 00:31:15;;;;;;;6.80;2.27;;;13.10;99.90;;;;;;5059041;28;20207;-71
2022/10/19 00:33:42;;;;;;;8.87;2.80;;;13.00;99.90;;;;;;5081832;28;20222;-70
2022/10/19 00:36:16;;;;;;;6.23;2.63;;;13.10;99.90;;;;;;5070267;28;20681;-69
2022/10/19 00:38:41;;;;;;;6.43;2.43;;;13.10;99.90;;;;;;5066345;28;20233;-69
2022/10/19 00:41:07;;;;;;;10.27;2.50;;;13.10;99.90;;;;;;5059498;28;20218;-69
2022/10/19 00:43:51;;;;;;;4.97;2.30;;;13.10;99.90;;;;;;5075975;28;20555;-69
2022/10/19 00:46:16;;;;;;;11.27;2.80;;;13.00;99.90;;;;;;5055975;28;20204;-69
2022/10/19 00:48:42;;;;;;;6.03;2.30;;;13.00;99.90;;;;;;5074789;28;20198;-70
2022/10/19 00:51:07;;;;;;;5.43;1.77;;;13.10;99.90;;;;;;5078546;28;20307;-69
2022/10/19 00:53:34;;;;;;;9.43;2.30;;;13.10;99.90;;;;;;5058113;28;20498;-69
2022/10/19 00:56:04;;;;;;;5.17;2.30;;;13.00;99.90;;;;;;5056717;28;20206;-69
2022/10/19 00:58:30;;;;;;;5.80;2.10;;;13.00;99.90;;;;;;5061889;28;20824;-70
2022/10/19 01:00:57;;;;;;;7.63;2.07;;;12.90;99.90;;;;;;5074669;28;20297;-69
2022/10/19 01:03:23;;;;;;;4.47;2.10;;;12.90;99.90;;;;;;5071822;28;20791;-69
2022/10/19 01:05:49;;;;;;;5.43;2.20;;;12.90;99.90;;;;;;5072391;28;20174;-69
2022/10/19 01:08:15;;;;;;;6.30;2.20;;;13.00;99.90;;;;;;5076523;28;20291;-69
2022/10/19 01:11:13;;;;;;;6.80;2.23;;;13.00;99.90;;;;;;5045758;28;20294;-69
2022/10/19 01:14:02;;;;;;;6.13;1.93;;;13.00;99.90;;;;;;5070286;28;20262;-69
2022/10/19 01:16:51;;;;;;;5.70;2.27;;;13.00;99.90;;;;;;5078624;28;20309;-69
2022/10/19 01:19:56;;;;;;;4.57;1.50;;;13.00;99.90;;;;;;5067415;28;20221;-69
2022/10/19 01:22:52;;;;;;;6.87;2.03;;;13.00;99.90;;;;;;5041696;28;20222;-69
2022/10/19 01:25:29;;;;;;;6.53;2.47;;;13.00;99.90;;;;;;5075421;28;20214;-69
2022/10/19 01:28:28;;;;;;;10.30;2.20;;;13.00;99.90;;;;;;5039746;28;20207;-69
2022/10/19 01:31:20;;;;;;;5.10;1.73;;;13.00;99.90;;;;;;5073462;28;20210;-69
2022/10/19 01:34:17;;;;;;;8.20;2.47;;;12.90;99.90;;;;;;5076929;28;20215;-69
2022/10/19 01:37:04;;;;;;;5.00;1.93;;;12.90;99.90;;;;;;5076569;28;20261;-69
2022/10/19 01:39:48;;;;;;;5.70;2.20;;;13.00;99.90;;;;;;5073297;28;20206;-69
2022/10/19 01:42:24;;;;;;;7.10;1.90;;;12.90;99.90;;;;;;5080611;28;20710;-69
2022/10/19 01:44:54;;;;;;;8.10;2.57;;;12.90;99.90;;;;;;5066617;28;20741;-70
2022/10/19 01:47:29;;;;;;;5.77;2.03;;;12.90;99.90;;;;;;5071325;28;20166;-69
2022/10/19 01:50:00;;;;;;;3.30;1.77;;;12.90;99.90;;;;;;5059387;28;20260;-69
2022/10/19 01:52:26;;;;;;;12.30;2.40;;;12.90;99.90;;;;;;5070189;28;20696;-69
2022/10/19 01:54:57;;;;;;;8.37;2.30;;;12.90;99.90;;;;;;5071871;28;20704;-69
2022/10/19 01:57:31;;;;;;;8.80;2.50;;;12.90;99.90;;;;;;5060968;28;20206;-69
2022/10/19 01:59:57;;;;;;;5.67;1.77;;;12.90;99.90;;;;;;5076092;28;20178;-69
2022/10/19 02:02:25;;;;;;;5.60;2.10;;;12.90;99.90;;;;;;5071555;28;20294;-69
2022/10/19 02:04:55;;;;;;;7.03;2.40;;;12.90;99.90;;;;;;5071166;28;20293;-69
2022/10/19 02:07:23;;;;;;;4.67;1.83;;;12.80;99.90;;;;;;5079775;28;20650;-69
2022/10/19 02:09:49;;;;;;;8.50;2.33;;;12.80;99.90;;;;;;5065391;28;20206;-69
2022/10/19 02:12:15;;;;;;;6.70;2.35;;;12.80;99.90;;;;;;5067058;28;20199;-69
2022/10/19 02:14:49;;;;;;;7.73;2.00;;;12.80;99.90;;;;;;5074589;28;20201;-69
2022/10/19 02:17:19;;;;;;;8.10;2.13;;;12.80;99.90;;;;;;5074732;28;20673;-69
2022/10/19 02:19:45;;;;;;;4.27;1.50;;;12.80;99.90;;;;;;5062518;28;20231;-70
2022/10/19 02:22:11;;;;;;;7.90;2.27;;;12.80;99.90;;;;;;5042750;28;20220;-69
2022/10/19 02:24:37;;;;;;;5.97;1.70;;;12.80;99.90;;;;;;5080199;28;20206;-69
2022/10/19 02:27:05;;;;;;;5.07;1.60;;;12.80;99.90;;;;;;5055540;28;20185;-69
2022/10/19 02:29:32;;;;;;;6.20;1.97;;;12.80;99.90;;;;;;5058632;28;20189;-69
2022/10/19 02:31:58;;;;;;;6.67;1.77;;;12.70;99.90;;;;;;5075306;28;20214;-69
2022/10/19 02:34:24;;;;;;;5.30;1.60;;;12.80;99.90;;;;;;5074822;28;20752;-69
2022/10/19 02:36:50;;;;;;;6.17;1.40;;;12.80;99.90;;;;;;5068502;28;20199;-69
2022/10/19 02:39:15;;;;;;;4.83;1.93;;;12.80;99.90;;;;;;5043881;28;20210;-69
2022/10/19 02:41:47;;;;;;;4.57;1.73;;;12.70;99.90;;;;;;5079755;28;20615;-69
2022/10/19 02:44:19;;;;;;;6.47;2.30;;;12.60;99.90;;;;;;5069182;28;20277;-69
2022/10/19 02:46:50;;;;;;;3.47;2.10;;;12.70;99.90;;;;;;5065618;28;20233;-70
2022/10/19 02:49:16;;;;;;;8.90;1.97;;;12.60;99.90;;;;;;5070308;28;20736;-69
2022/10/19 02:52:06;;;;;;;5.77;2.10;;;12.60;99.90;;;;;;5071774;28;20207;-70
2022/10/19 02:54:32;;;;;;;6.87;1.93;;;12.60;99.90;;;;;;5059276;28;20214;-69
2022/10/19 02:56:58;;;;;;;4.83;1.50;;;12.60;99.90;;;;;;5047693;28;20399;-69
2022/10/19 02:59:24;;;;;;;3.77;1.80;;;12.60;99.90;;;;;;5067877;28;20195;-69
2022/10/19 03:01:50;;;;;;;6.10;1.93;;;12.50;99.90;;;;;;5080168;28;20614;-70
2022/10/19 03:04:15;;;;;;;6.70;2.13;;;12.50;99.90;;;;;;5073100;28;20210;-70
2022/10/19 03:06:41;;;;;;;3.97;1.90;;;12.50;99.90;;;;;;5062471;28;20202;-69
2022/10/19 03:09:07;;;;;;;5.20;1.60;;;12.60;99.90;;;;;;5073800;28;20622;-70
2022/10/19 03:11:33;;;;;;;4.53;2.17;;;12.60;99.90;;;;;;5076170;28;20198;-70
2022/10/19 03:13:58;;;;;;;5.13;1.77;;;12.60;99.90;;;;;;5074577;28;20238;-69
2022/10/19 03:16:24;;;;;;;3.87;1.57;;;12.60;99.90;;;;;;5064151;28;20720;-69
2022/10/19 03:18:49;;;;;;;5.33;1.67;;;12.60;99.90;;;;;;5073267;28;20290;-70
2022/10/19 03:21:15;;;;;;;8.17;2.20;;;12.60;99.90;;;;;;5073307;28;20301;-69
2022/10/19 03:23:41;;;;;;;8.90;2.37;;;12.70;99.90;;;;;;5078490;28;20198;-69
2022/10/19 03:26:08;;;;;;;3.33;1.63;;;12.70;99.90;;;;;;5076586;28;20211;-69
2022/10/19 03:28:33;;;;;;;5.77;2.00;;;12.70;99.90;;;;;;5076520;28;20713;-69
2022/10/19 03:30:59;;;;;;;6.00;1.60;;;12.70;99.90;;;;;;5073308;28;20230;-69
2022/10/19 03:33:25;;;;;;;5.57;2.13;;;12.70;99.90;;;;;;5080367;28;20301;-69
2022/10/19 03:36:33;;;;;;;6.50;1.70;;;12.70;99.90;;;;;;5073120;28;20594;-69
2022/10/19 03:39:01;;;;;;;4.20;1.40;;;12.60;99.90;;;;;;5073375;28;20179;-70
2022/10/19 03:41:29;;;;;;;7.10;2.20;;;12.70;99.90;;;;;;5063263;28;20202;-70
2022/10/19 03:43:55;;;;;;;3.43;1.47;;;12.60;99.90;;;;;;5075438;28;20285;-70
2022/10/19 03:46:21;;;;;;;5.50;1.80;;;12.60;99.90;;;;;;5073204;28;20199;-70
2022/10/19 03:48:47;;;;;;;4.87;1.80;;;12.60;99.90;;;;;;5076893;28;20221;-70
2022/10/19 03:51:17;;;;;;;6.00;1.67;;;12.60;99.90;;;;;;5074393;28;20640;-69
2022/10/19 03:53:43;;;;;;;6.87;1.87;;;12.60;99.90;;;;;;5056997;28;20670;-70
2022/10/19 03:56:18;;;;;;;5.53;1.60;;;12.60;99.90;;;;;;5074316;28;20207;-70
2022/10/19 03:58:46;;;;;;;8.83;1.83;;;12.60;99.90;;;;;;5077518;28;20202;-70
2022/10/19 04:01:23;;;;;;;4.63;1.57;;;12.40;99.90;;;;;;5058654;28;20272;-70
2022/10/19 04:03:56;;;;;;;4.97;1.27;;;12.60;99.90;;;;;;5071642;28;20209;-69
2022/10/19 04:06:25;;;;;;;7.30;1.67;;;12.60;99.90;;;;;;5077431;28;20199;-70
2022/10/19 04:08:51;;;;;;;5.10;1.50;;;12.50;99.90;;;;;;5059332;28;20175;-70
2022/10/19 04:11:20;;;;;;;5.37;1.50;;;12.50;99.90;;;;;;5058791;28;20229;-70
2022/10/19 04:13:50;;;;;;;5.53;1.53;;;12.50;99.90;;;;;;5078683;28;20721;-70
2022/10/19 04:16:16;;;;;;;7.80;1.40;;;12.50;99.90;;;;;;5078260;28;20206;-70
2022/10/19 04:18:41;;;;;;;6.50;1.93;;;12.50;99.90;;;;;;5072983;28;20822;-70
2022/10/19 04:21:20;;;;;;;5.57;1.30;;;12.50;99.90;;;;;;5071742;28;20221;-70
2022/10/19 04:23:46;;;;;;;5.77;1.20;;;12.50;99.90;;;;;;5077013;28;20689;-70
2022/10/19 04:26:11;;;;;;;3.73;1.17;;;12.50;99.90;;;;;;5057780;28;20207;-70
2022/10/19 04:28:37;;;;;;;2.67;1.03;;;12.60;99.90;;;;;;5075964;28;20255;-70
2022/10/19 04:31:04;;;;;;;6.07;1.70;;;12.60;99.90;;;;;;5071605;28;20623;-70
2022/10/19 04:33:29;;;;;;;2.40;0.90;;;12.60;99.90;;;;;;5079149;28;20263;-70
2022/10/19 04:36:03;;;;;;;4.57;1.80;;;12.60;99.90;;;;;;5071669;28;20227;-70
2022/10/19 04:38:29;;;;;;;7.20;1.40;;;12.50;99.90;;;;;;5062485;28;20224;-70
2022/10/19 04:40:59;;;;;;;4.53;1.60;;;12.50;99.90;;;;;;5074068;28;20215;-71
2022/10/19 04:43:25;;;;;;;3.53;1.60;;;12.60;99.90;;;;;;5072991;28;20215;-71
2022/10/19 04:45:50;;;;;;;3.10;1.40;;;12.60;99.90;;;;;;5075247;28;20216;-70
2022/10/19 04:48:16;;;;;;;3.63;1.07;;;12.60;99.90;;;;;;5073610;28;20291;-70
2022/10/19 04:50:41;;;;;;;3.63;1.50;;;12.60;99.90;;;;;;5078771;28;20236;-70
2022/10/19 04:53:07;;;;;;;4.03;1.10;;;12.60;99.90;;;;;;5073846;28;20207;-70
2022/10/19 04:55:32;;;;;;;4.77;1.03;;;12.60;99.90;;;;;;5080149;28;20210;-70
2022/10/19 04:57:58;;;;;;;4.20;1.40;;;12.60;99.90;;;;;;5077502;28;20712;-70
2022/10/19 05:00:23;;;;;;;8.00;1.60;;;12.60;99.90;;;;;;5075761;28;20225;-70
2022/10/19 05:02:49;;;;;;;2.53;1.13;;;12.60;99.90;;;;;;5078813;28;20209;-71
2022/10/19 05:05:14;;;;;;;7.50;2.30;;;12.60;99.90;;;;;;5077005;28;20200;-70
2022/10/19 05:07:40;;;;;;;8.53;1.90;;;12.60;99.90;;;;;;5081123;28;20364;-70
2022/10/19 05:10:11;;;;;;;4.80;1.03;;;12.60;99.90;;;;;;5072283;28;20762;-70
2022/10/19 05:12:36;;;;;;;6.20;1.83;;;12.60;99.90;;;;;;5080372;28;20214;-70
2022/10/19 05:15:03;;;;;;;5.10;1.50;;;12.60;99.90;;;;;;5059896;28;20240;-71
2022/10/19 05:17:30;;;;;;;4.43;1.00;;;12.60;99.90;;;;;;5076698;28;20176;-70
2022/10/19 05:19:56;;;;;;;3.97;0.97;;;12.60;99.90;;;;;;5068505;28;20208;-70
2022/10/19 05:22:22;;;;;;;5.37;1.17;;;12.60;99.90;;;;;;5071695;28;20667;-70
2022/10/19 05:24:47;;;;;;;3.97;1.77;;;12.60;99.90;;;;;;5063166;28;20215;-70
2022/10/19 05:27:13;;;;;;;5.27;2.27;;;12.60;99.90;;;;;;5059045;28;20203;-70
2022/10/19 05:29:38;;;;;;;4.93;1.87;;;12.50;99.90;;;;;;5070708;28;20187;-70
2022/10/19 05:32:04;;;;;;;6.97;2.70;;;12.60;99.90;;;;;;5074994;28;20567;-70
2022/10/19 05:34:29;;;;;;;3.83;0.93;;;12.50;99.90;;;;;;5066851;28;20223;-70
2022/10/19 05:36:55;;;;;;;6.30;1.07;;;12.50;99.90;;;;;;5068994;28;20207;-71
2022/10/19 05:39:21;;;;;;;6.83;2.30;;;12.50;99.90;;;;;;5059431;28;20204;-70
2022/10/19 05:41:47;;;;;;;6.73;1.77;;;12.50;99.90;;;;;;5061902;28;20225;-71
2022/10/19 05:44:15;;;;;;;3.97;1.07;;;12.40;99.90;;;;;;5055711;28;20200;-71
2022/10/19 05:46:40;;;;;;;3.53;1.43;;;12.30;99.90;;;;;;5068721;28;20700;-70
2022/10/19 05:49:06;;;;;;;3.47;1.10;;;12.30;99.90;;;;;;5069216;28;20219;-70
2022/10/19 05:51:32;;;;;;;3.97;1.77;;;12.30;99.90;;;;;;5057290;28;20714;-70
2022/10/19 05:53:58;;;;;;;8.37;1.70;;;12.30;99.90;;;;;;5062941;28;20194;-71
2022/10/19 05:56:27;;;;;;;3.67;1.33;;;12.30;99.90;;;;;;5059394;28;20557;-70
2022/10/19 05:58:54;;;;;;;5.03;1.37;;;12.30;99.90;;;;;;5078018;28;20207;-71
2022/10/19 06:01:20;;;;;;;3.63;1.77;;;12.30;99.90;;;;;;5050165;28;20207;-70
2022/10/19 06:03:49;;;;;;;3.00;1.33;;;12.30;99.90;;;;;;5076524;28;20263;-70
2022/10/19 06:06:15;;;;;;;5.87;1.07;;;12.40;99.90;;;;;;5059084;28;20286;-70
2022/10/19 06:08:40;;;;;;;6.43;1.10;;;12.50;99.90;;;;;;5080836;28;20270;-70
2022/10/19 06:11:09;;;;;;;3.47;1.00;;;12.50;99.90;;;;;;5067687;28;20207;-70
2022/10/19 06:13:35;;;;;;;4.13;1.47;;;12.50;99.90;;;;;;5044906;28;20218;-70
2022/10/19 06:16:01;;;;;;;5.17;1.10;;;12.60;99.90;;;;;;5069687;28;20746;-70
2022/10/19 06:18:26;;;;;;;2.50;1.40;;;12.60;99.90;;;;;;5053131;28;20219;-70
2022/10/19 06:20:52;;;;;;;4.83;1.30;;;12.60;99.90;;;;;;5067655;28;20650;-70
2022/10/19 06:23:18;;;;;;;15.27;9.03;;;12.60;99.90;;;;;;5070618;28;20620;-71
2022/10/19 06:25:43;;;;;;;5.33;2.40;;;12.60;99.90;;;;;;5057996;28;20249;-70
2022/10/19 06:28:09;;;;;;;4.93;1.07;;;12.60;99.90;;;;;;5066950;28;20211;-70
2022/10/19 06:30:39;;;;;;;6.83;1.57;;;12.60;99.90;;;;;;5068942;28;20230;-70
2022/10/19 06:33:05;;;;;;;3.00;1.20;;;12.60;99.90;;;;;;5075049;28;20257;-70
2022/10/19 06:35:31;;;;;;;1.83;0.80;;;12.60;99.90;;;;;;5089163;23;20251;-71
2022/10/19 06:37:57;;;;;;;3.93;1.50;;;12.60;99.90;;;;;;5103766;27;20209;-69
2022/10/19 06:40:23;;;;;;;4.57;1.13;;;12.50;99.90;;;;;;5103511;28;20208;-70
2022/10/19 06:42:49;;;;;;;5.57;1.87;;;12.60;99.90;;;;;;5096049;28;20222;-70
2022/10/19 06:45:15;;;;;;;3.83;1.67;;;12.50;99.90;;;;;;5087323;28;20759;-69
2022/10/19 06:47:40;;;;;;;3.13;1.43;;;12.50;99.90;;;;;;5102380;28;20190;-69
2022/10/19 06:50:06;;;;;;;5.33;1.50;;;12.60;99.90;;;;;;5099804;28;20216;-69
2022/10/19 06:52:33;;;;;;;7.90;1.40;;;12.50;99.90;;;;;;5097341;28;20576;-71
2022/10/19 06:54:58;;;;;;;6.30;1.63;;;12.60;99.90;;;;;;5099048;28;20867;-71
2022/10/19 06:57:24;;;;;;;6.47;1.50;;;12.60;99.90;;;;;;5083034;28;20201;-70
2022/10/19 06:59:50;;;;;;;8.00;1.50;;;12.60;99.90;;;;;;5101880;28;20551;-69
2022/10/19 07:02:15;;;;;;;3.83;1.10;;;12.70;99.90;;;;;;5097614;28;20218;-69
2022/10/19 07:04:41;;;;;;;3.40;1.20;;;12.70;99.90;;;;;;5101793;28;20602;-69
2022/10/19 07:07:06;;;;;;;3.47;0.93;;;12.70;99.90;;;;;;5098677;28;20229;-70
2022/10/19 07:09:33;;;;;;;5.03;1.47;;;12.80;99.90;;;;;;5080272;28;20714;-70
2022/10/19 07:11:58;;;;;;;6.43;1.17;;;12.80;99.90;;;;;;5081541;28;20189;-69
2022/10/19 07:14:24;;;;;;;4.00;1.20;;;12.80;99.90;;;;;;5080122;28;20197;-69
2022/10/19 07:16:51;;;;;;;4.60;1.30;;;12.80;99.90;;;;;;5099765;28;20209;-72
2022/10/19 07:19:16;;;;;;;5.90;1.67;;;12.80;99.90;;;;;;5102845;28;20302;-70
2022/10/19 07:21:43;;;;;;;5.63;1.40;;;13.00;99.90;;;;;;5100236;28;20250;-71
2022/10/19 07:24:09;;;;;;;3.23;1.47;;;13.10;99.90;;;;;;5102887;28;20210;-71
2022/10/19 07:26:35;;;;;;;5.57;1.43;;;13.20;99.90;;;;;;5082534;28;20688;-71
2022/10/19 07:29:02;;;;;;;5.93;1.50;;;13.40;99.90;;;;;;5099686;28;20209;-71
2022/10/19 07:31:28;;;;;;;5.70;1.63;;;13.40;99.90;;;;;;5102747;28;20209;-70
2022/10/19 07:33:56;;;;;;;8.13;1.63;;;13.60;99.90;;;;;;5100304;28;20221;-70
2022/10/19 07:36:23;;;;;;;2.97;1.37;;;13.70;99.90;;;;;;5087497;28;20271;-71
2022/10/19 07:38:49;;;;;;;7.93;2.33;;;13.90;99.90;;;;;;5100801;28;20598;-70
2022/10/19 07:41:17;;;;;;;5.00;1.60;;;14.10;99.90;;;;;;5082211;28;20217;-70
2022/10/19 07:43:44;;;;;;;5.05;1.67;;;14.30;99.90;;;;;;5101668;28;20213;-71
2022/10/19 07:46:16;;;;;;;3.92;1.25;;;14.20;99.90;;;;;;5100669;28;20213;-70
2022/10/19 07:48:42;;;;;;;5.57;1.40;;;14.20;99.90;;;;;;5082783;28;20232;-71
2022/10/19 07:51:09;;;;;;;4.72;1.20;;;15.90;99.90;;;;;;5097391;28;20638;-72
2022/10/19 07:53:35;;;;;;;3.33;0.98;;;16.70;99.90;;;;;;5102052;28;20213;-71
2022/10/19 07:56:06;;;;;;;4.68;1.35;;;16.70;99.90;;;;;;5100677;28;20229;-69
2022/10/19 07:58:33;;;;;;;2.33;1.00;;;16.40;99.90;;;;;;5097365;28;20233;-72
2022/10/19 08:01:00;;;;;;;2.70;1.05;;;16.10;99.90;;;;;;5097799;28;20218;-72
2022/10/19 08:03:26;;;;;;;3.05;1.10;;;15.90;99.90;;;;;;5099259;28;20684;-71
2022/10/19 08:05:51;;;;;;;2.90;1.25;;;15.40;99.90;;;;;;5100329;28;20217;-71
2022/10/19 08:08:17;;;;;;;2.50;1.00;;;15.00;99.90;;;;;;5101007;28;20197;-70
2022/10/19 08:10:42;;;;;;;2.17;0.73;;;14.70;99.90;;;;;;5096406;28;20292;-72
2022/10/19 08:13:08;;;;;;;4.75;1.15;;;14.50;99.90;;;;;;5080683;28;20276;-72
2022/10/19 08:15:33;;;;;;;7.40;0.95;;;14.30;99.90;;;;;;5087290;28;20202;-70
2022/10/19 08:17:59;;;;;;;2.35;0.90;;;14.30;99.90;;;;;;5100101;28;20205;-70
2022/10/19 08:20:25;;;;;;;3.65;1.33;;;14.20;99.90;;;;;;5109407;28;20158;-70
2022/10/19 08:22:51;;;;;;;3.78;0.93;;;14.30;99.90;;;;;;5103443;28;20581;-71
2022/10/19 08:25:16;;;;;;;9.25;1.15;;;14.50;99.90;;;;;;5097718;28;20202;-69
2022/10/19 08:27:42;;;;;;;2.80;1.20;;;14.40;99.90;;;;;;5103442;28;20536;-71
2022/10/19 08:30:07;;;;;;;4.43;1.00;;;14.30;99.90;;;;;;5093298;28;20696;-71
2022/10/19 08:32:33;;;;;;;8.18;1.20;;;14.30;99.90;;;;;;5105448;28;20170;-70
2022/10/19 08:34:58;;;;;;;3.70;1.35;;;14.30;99.90;;;;;;5087499;28;20210;-70
2022/10/19 08:37:24;;;;;;;4.28;0.80;;;14.20;99.90;;;;;;5105608;28;20714;-71
2022/10/19 08:39:49;;;;;;;5.28;1.10;;;14.10;99.90;;;;;;5103821;28;20210;-71
2022/10/19 08:42:28;;;;;;;3.38;1.23;;;14.20;99.90;;;;;;5092722;28;20217;-70
2022/10/19 08:45:14;;;;;;;3.72;1.02;;;14.30;99.90;;;;;;5102590;28;20235;-70
2022/10/19 08:48:19;;;;;;;4.07;0.70;;;14.50;99.90;;;;;;5098151;28;20170;-71
2022/10/19 08:50:46;;;;;;;4.35;1.00;;;14.60;99.90;;;;;;5097980;28;20209;-69
2022/10/19 08:53:17;;;;;;;4.47;1.10;;;14.80;99.90;;;;;;5107318;28;20198;-68
2022/10/19 08:56:04;;;;;;;2.65;1.27;;;15.10;99.90;;;;;;5096499;28;20213;-69
2022/10/19 08:58:55;;;;;;;1.88;0.77;;;15.10;99.90;;;;;;5083688;28;20204;-69
2022/10/19 09:01:42;;;;;;;1.20;0.95;;;14.90;99.90;;;;;;5100899;28;20295;-70
2022/10/19 09:04:11;;;;;;;7.93;1.45;;;15.30;99.90;;;;;;5100523;28;20255;-70
2022/10/19 09:07:06;;;;;;;3.58;1.15;;;15.80;99.90;;;;;;5103284;28;20292;-70
2022/10/19 09:09:33;;;;;;;5.15;1.40;;;15.90;99.90;;;;;;5093144;28;20206;-70
2022/10/19 09:12:05;;;;;;;5.85;1.17;;;15.80;99.90;;;;;;5103064;28;20574;-71
2022/10/19 09:14:37;;;;;;;3.65;1.08;;;15.50;99.90;;;;;;5086952;28;20228;-71
2022/10/19 09:17:13;;;;;;;8.10;1.38;;;15.20;99.90;;;;;;5099882;28;20661;-70
2022/10/19 09:19:38;;;;;;;4.97;1.55;;;15.30;99.90;;;;;;5103912;28;20225;-70
2022/10/19 09:22:17;;;;;;;3.88;1.05;;;15.40;99.90;;;;;;5100711;28;20738;-71
2022/10/19 09:25:21;;;;;;;4.82;1.40;;;15.60;99.90;;;;;;5102675;28;20212;-70
2022/10/19 09:27:56;;;;;;;4.90;1.10;;;15.50;99.90;;;;;;5081745;28;20216;-70
2022/10/19 09:30:23;;;;;;;5.55;1.30;;;15.50;99.90;;;;;;5099770;28;20285;-70
2022/10/19 09:32:54;;;;;;;3.70;1.02;;;15.60;99.90;;;;;;5101143;28;20198;-70
2022/10/19 09:35:36;;;;;;;8.18;2.05;;;15.70;99.90;;;;;;5100001;28;20206;-71
2022/10/19 09:38:04;;;;;;;3.97;1.45;;;15.90;99.90;;;;;;5100759;28;20222;-70
2022/10/19 09:40:30;;;;;;;3.83;1.17;;;15.80;99.90;;;;;;5087418;28;20308;-74
2022/10/19 09:42:57;;;;;;;3.65;1.10;;;15.80;99.90;;;;;;5102765;28;20308;-71
2022/10/19 09:45:42;;;;;;;4.15;1.40;;;15.90;99.90;;;;;;5104407;28;20213;-71
2022/10/19 09:48:23;;;;;;;5.45;1.30;;;15.80;99.90;;;;;;5099421;28;20205;-71
2022/10/19 09:50:55;;;;;;;5.32;1.30;;;15.80;99.90;;;;;;5083066;28;20191;-71
2022/10/19 09:53:21;;;;;;;4.57;1.00;;;15.80;99.90;;;;;;5082662;28;20589;-73
2022/10/19 09:55:56;;;;;;;4.85;1.52;;;15.90;99.90;;;;;;5104178;28;20220;-70
2022/10/19 09:58:25;;;;;;;3.67;1.20;;;15.90;99.90;;;;;;5107729;28;20215;-71
2022/10/19 10:00:55;;;;;;;6.45;1.17;;;15.90;99.90;;;;;;5100109;28;20229;-72
2022/10/19 10:03:22;;;;;;;5.07;1.45;;;15.90;99.90;;;;;;5099295;28;20230;-72
2022/10/19 10:05:49;;;;;;;5.53;1.25;;;15.80;99.90;;;;;;5102492;28;20746;-71
2022/10/19 10:08:21;;;;;;;6.72;1.60;;;15.80;99.90;;;;;;5103830;28;20270;-72
2022/10/19 10:11:29;;;;;;;8.60;1.70;;;15.90;99.90;;;;;;5096337;28;20205;-71
2022/10/19 10:13:57;;;;;;;4.47;1.35;;;15.90;99.90;;;;;;5040908;28;20208;-71
2022/10/19 10:16:28;;;;;;;2.40;1.00;;;16.10;99.90;;;;;;5102669;28;20224;-71
2022/10/19 10:18:55;;;;;;;4.40;1.27;;;16.60;99.90;;;;;;5096521;28;20236;-72
2022/10/19 10:21:27;;;;;;;6.25;0.98;;;17.20;99.90;;;;;;5088316;28;20218;-72
2022/10/19 10:24:15;;;;;;;8.02;1.10;;;17.60;99.90;;;;;;5082046;28;20216;-69
2022/10/19 10:26:53;;;;;;;3.90;0.88;;;17.60;99.90;;;;;;5084962;28;20200;-71
2022/10/19 10:29:26;;;;;;;1.67;1.08;;;17.30;99.90;;;;;;5065522;28;20638;-71
2022/10/19 10:32:19;;;;;;;5.80;1.10;;;17.30;99.90;;;;;;5099524;28;20210;-72
2022/10/19 10:34:46;;;;;;;3.17;1.02;;;17.20;99.90;;;;;;5083113;28;20215;-71
2022/10/19 10:37:41;;;;;;;3.80;1.25;;;17.20;99.90;;;;;;5099304;28;20214;-71
2022/10/19 10:40:26;;;;;;;1.20;0.68;;;16.70;99.90;;;;;;5067220;28;20218;-71
2022/10/19 10:42:55;;;;;;;1.65;0.73;;;16.60;99.90;;;;;;5099075;28;20214;-71
2022/10/19 10:45:38;;;;;;;1.10;0.45;;;16.50;99.90;;;;;;5078352;28;20697;-70
2022/10/19 10:48:41;;;;;;;4.28;1.10;;;16.40;99.90;;;;;;5098589;28;20217;-72
2022/10/19 10:51:26;;;;;;;3.80;0.80;;;16.20;99.90;;;;;;4999339;28;20879;-71
2022/10/19 10:54:07;;;;;;;18.45;14.20;;;16.40;99.90;;;;;;5091023;28;20280;-72
2022/10/19 10:56:34;;;;;;;1.73;0.73;;;16.40;99.90;;;;;;5094746;28;20542;-70
2022/10/19 10:59:18;;;;;;;3.35;1.00;;;16.50;99.90;;;;;;5099088;28;20718;-70
2022/10/19 11:01:57;;;;;;;0.93;0.55;;;16.80;99.90;;;;;;5081212;28;20217;-71
2022/10/19 11:04:28;;;;;;;2.45;0.93;;;16.80;99.90;;;;;;5098962;28;20202;-70
2022/10/19 11:06:58;;;;;;;3.10;0.70;;;17.00;99.90;;;;;;5099503;28;20263;-70
2022/10/19 11:09:28;;;;;;;1.73;0.70;;;16.90;99.90;;;;;;5077467;28;20245;-71
2022/10/19 11:12:00;;;;;;;1.30;0.75;;;17.30;99.90;;;;;;5101109;28;20226;-71
2022/10/19 11:14:52;;;;;;;1.67;1.00;;;17.60;99.90;;;;;;5101908;28;20196;-70
2022/10/19 11:17:22;;;;;;;1.95;0.80;;;17.80;99.90;;;;;;5088761;28;20241;-71
2022/10/19 11:19:51;;;;;;;3.15;0.82;;;18.10;99.90;;;;;;5099774;28;20241;-71
2022/10/19 11:22:32;;;;;;;5.40;0.82;;;18.00;99.90;;;;;;5108796;28;20281;-71
2022/10/19 11:25:01;;;;;;;1.63;0.70;;;17.90;99.90;;;;;;5083490;28;20253;-71
2022/10/19 11:27:26;;;;;;;0.93;0.45;;;18.00;99.90;;;;;;5080525;28;20297;-71
2022/10/19 11:30:09;;;;;;;3.88;1.15;;;17.90;99.90;;;;;;5100513;28;20213;-71
2022/10/19 11:33:02;;;;;;;4.20;1.30;;;17.80;99.90;;;;;;5098164;28;20185;-71
2022/10/19 11:35:53;;;;;;;1.58;0.73;;;17.40;99.90;;;;;;5096969;28;20276;-71
2022/10/19 11:38:44;;;;;;;2.85;1.10;;;17.00;99.90;;;;;;5094859;28;20214;-72
2022/10/19 11:41:25;;;;;;;5.97;1.20;;;16.90;99.90;;;;;;5079551;28;20215;-73
2022/10/19 11:44:26;;;;;;;2.55;0.68;;;17.10;99.90;;;;;;5094602;28;20223;-70
2022/10/19 11:47:03;;;;;;;8.05;5.88;;;17.00;99.90;;;;;;5053954;28;20285;-73
2022/10/19 11:50:09;;;;;;;3.17;1.00;;;16.70;99.90;;;;;;5101666;28;20594;-70
2022/10/19 11:52:48;;;;;;;4.10;0.70;;;16.70;99.90;;;;;;5011557;28;20702;-70
2022/10/19 11:55:38;;;;;;;1.92;0.60;;;16.70;99.90;;;;;;5068595;28;20198;-70
2022/10/19 11:58:22;;;;;;;2.72;0.80;;;16.60;99.90;;;;;;5097324;28;20210;-72
2022/10/19 12:01:14;;;;;;;1.73;0.93;;;16.70;99.90;;;;;;5082926;28;20220;-72
2022/10/19 12:04:21;;;;;;;3.72;0.90;;;16.70;99.90;;;;;;5074615;28;20213;-69
2022/10/19 12:07:08;;;;;;;2.63;0.80;;;16.70;99.90;;;;;;5085455;28;20735;-72
2022/10/19 12:09:56;;;;;;;2.50;0.85;;;16.90;99.90;;;;;;5103484;28;20221;-72
2022/10/19 12:12:41;;;;;;;0.75;0.52;;;17.20;99.90;;;;;;5082668;28;20593;-72
2022/10/19 12:15:10;;;;;;;2.03;0.70;;;17.40;99.90;;;;;;5098467;28;20225;-71
2022/10/19 12:17:39;;;;;;;3.40;0.60;;;17.60;99.90;;;;;;5104246;28;20560;-70
2022/10/19 12:20:14;;;;;;;1.33;0.68;;;17.70;99.90;;;;;;5103053;28;20206;-69
2022/10/19 12:22:40;;;;;;;1.77;0.68;;;17.60;99.90;;;;;;5100141;28;20217;-68
2022/10/19 12:25:06;;;;;;;2.92;0.90;;;17.30;99.90;;;;;;5103386;28;20291;-67
2022/10/19 12:27:34;;;;;;;1.02;0.60;;;17.10;99.90;;;;;;5102317;28;20287;-68
2022/10/19 12:30:21;;;;;;;2.28;0.68;;;16.90;99.90;;;;;;5101743;28;20174;-68
2022/10/19 12:32:51;;;;;;;2.35;0.73;;;16.60;99.90;;;;;;5102627;28;20198;-68
2022/10/19 12:38:20;;;;;;;2.08;0.70;;;16.30;99.90;;;;;;5068272;28;20230;-70
2022/10/19 12:40:54;;;;;;;3.45;0.82;;;16.20;99.90;;;;;;5066837;28;20210;-69
2022/10/19 12:43:43;;;;;;;2.67;0.77;;;16.00;99.90;;;;;;5072809;28;20258;-69
2022/10/19 12:46:37;;;;;;;0.82;0.70;;;16.30;99.90;;;;;;5057660;28;20637;-69
2022/10/19 12:49:27;;;;;;;3.45;0.70;;;16.40;99.90;;;;;;5091670;28;20209;-70
2022/10/19 12:52:03;;;;;;;2.45;0.70;;;16.90;99.90;;;;;;5074499;28;20220;-70
2022/10/19 12:54:34;;;;;;;1.10;0.57;;;17.10;99.90;;;;;;5088720;28;20294;-69
2022/10/19 12:57:02;;;;;;;3.08;0.55;;;17.20;99.90;;;;;;5087420;28;20293;-70
2022/10/19 12:59:35;;;;;;;2.15;0.70;;;17.30;99.90;;;;;;5082915;28;20175;-69
2022/10/19 13:02:17;;;;;;;2.25;0.93;;;17.50;99.90;;;;;;5084168;28;20293;-69
2022/10/19 13:04:52;;;;;;;3.50;0.82;;;17.30;99.90;;;;;;5087471;28;20202;-70
2022/10/19 13:07:18;;;;;;;4.72;0.98;;;17.00;99.90;;;;;;5072305;28;20765;-70
2022/10/19 13:09:46;;;;;;;1.98;0.60;;;16.80;99.90;;;;;;5091544;28;20293;-70
2022/10/19 13:12:12;;;;;;;1.42;0.70;;;16.60;99.90;;;;;;5082135;28;20300;-70